createdAt,value
2018-05-04T00:01:16.537Z,59.33
2018-05-04T00:03:51.158Z,59.49
2018-05-04T00:06:25.756Z,59.49
2018-05-04T00:09:00.436Z,59.65
2018-05-04T00:11:34.892Z,59.57
2018-05-04T00:14:09.549Z,59.87
2018-05-04T00:16:44.120Z,59.77
2018-05-04T00:19:18.809Z,59.68
2018-05-04T00:21:53.399Z,59.77
2018-05-04T00:24:28.168Z,60.21
2018-05-04T00:27:02.589Z,60.23
2018-05-04T00:29:37.053Z,60.47
2018-05-04T00:32:11.401Z,60.69
2018-05-04T00:34:45.999Z,60.78
2018-05-04T00:37:20.575Z,61.03
2018-05-04T00:39:55.903Z,61.11
2018-05-04T00:42:30.537Z,61.30
2018-05-04T00:45:05.779Z,61.46
2018-05-04T00:47:40.391Z,61.74
2018-05-04T00:50:15.128Z,61.78
2018-05-04T00:52:49.846Z,62.10
2018-05-04T00:55:24.586Z,62.08
2018-05-04T00:57:59.846Z,62.22
2018-05-04T01:00:34.446Z,62.39
2018-05-04T01:03:09.033Z,62.69
2018-05-04T01:05:43.582Z,62.84
2018-05-04T01:08:18.181Z,62.87
2018-05-04T01:10:52.749Z,62.96
2018-05-04T01:13:28.040Z,63.21
2018-05-04T01:16:03.386Z,63.31
2018-05-04T01:18:37.856Z,63.28
2018-05-04T01:21:12.321Z,63.52
2018-05-04T01:23:47.064Z,63.46
2018-05-04T01:26:21.506Z,63.84
2018-05-04T01:28:56.012Z,63.95
2018-05-04T01:31:30.553Z,64.25
2018-05-04T01:34:05.853Z,64.42
2018-05-04T01:36:40.377Z,64.57
2018-05-04T01:39:14.914Z,64.71
2018-05-04T01:41:50.178Z,64.99
2018-05-04T01:44:24.735Z,65.31
2018-05-04T01:46:59.259Z,65.34
2018-05-04T01:49:33.749Z,65.43
2018-05-04T01:52:09.052Z,65.57
2018-05-04T01:54:43.659Z,65.62
2018-05-04T01:57:18.300Z,65.96
2018-05-04T01:59:52.779Z,66.15
2018-05-04T02:02:27.441Z,66.25
2018-05-04T02:05:01.970Z,66.29
2018-05-04T02:07:36.456Z,66.51
2018-05-04T02:10:10.929Z,66.79
2018-05-04T02:12:45.488Z,66.72
2018-05-04T02:15:20.908Z,66.67
2018-05-04T02:17:55.524Z,67.00
2018-05-04T02:20:30.074Z,67.11
2018-05-04T02:23:04.672Z,67.19
2018-05-04T02:25:39.333Z,67.53
2018-05-04T02:28:13.904Z,67.34
2018-05-04T02:30:48.460Z,67.56
2018-05-04T02:33:23.142Z,67.61
2018-05-04T02:35:58.453Z,67.63
2018-05-04T02:38:33.759Z,67.66
2018-05-04T02:41:08.337Z,67.83
2018-05-04T02:43:42.826Z,67.76
2018-05-04T02:46:17.520Z,67.91
2018-05-04T02:48:52.910Z,68.03
2018-05-04T02:51:27.468Z,68.11
2018-05-04T02:54:01.893Z,68.31
2018-05-04T02:56:36.413Z,68.47
2018-05-04T02:59:10.982Z,68.52
2018-05-04T03:01:45.605Z,68.71
2018-05-04T03:04:20.224Z,68.80
2018-05-04T03:06:54.881Z,68.92
2018-05-04T03:09:30.088Z,68.75
2018-05-04T03:12:04.714Z,69.00
2018-05-04T03:14:39.441Z,69.28
2018-05-04T03:17:14.089Z,69.44
2018-05-04T03:19:48.547Z,69.53
2018-05-04T03:22:23.109Z,69.50
2018-05-04T03:24:57.649Z,69.78
2018-05-04T03:27:32.252Z,69.74
2018-05-04T03:30:06.721Z,69.84
2018-05-04T03:32:41.444Z,70.03
2018-05-04T03:35:15.866Z,70.10
2018-05-04T03:37:50.305Z,70.19
2018-05-04T03:40:24.914Z,70.34
2018-05-04T03:42:59.489Z,70.35
2018-05-04T03:45:34.045Z,70.30
2018-05-04T03:48:09.625Z,70.46
2018-05-04T03:50:44.025Z,70.28
2018-05-04T03:53:18.599Z,70.70
2018-05-04T03:55:53.996Z,70.69
2018-05-04T03:58:46.362Z,70.67
2018-05-04T04:01:38.733Z,70.45
2018-05-04T04:04:13.393Z,70.59
2018-05-04T04:06:48.017Z,70.42
2018-05-04T04:09:22.704Z,70.24
2018-05-04T04:11:58.020Z,70.06
2018-05-04T04:14:32.566Z,70.06
2018-05-04T04:17:06.961Z,69.84
2018-05-04T04:19:42.326Z,69.77
2018-05-04T04:22:17.060Z,69.82
2018-05-04T04:24:51.679Z,69.70
2018-05-04T04:27:26.329Z,69.60
2018-05-04T04:30:00.739Z,69.49
2018-05-04T04:32:35.344Z,69.51
2018-05-04T04:35:09.883Z,69.46
2018-05-04T04:37:44.300Z,69.63
2018-05-04T04:40:19.594Z,69.31
2018-05-04T04:42:54.230Z,69.21
2018-05-04T04:45:29.574Z,69.20
2018-05-04T04:48:04.112Z,69.12
2018-05-04T04:50:38.669Z,68.85
2018-05-04T04:53:13.089Z,68.64
2018-05-04T04:55:47.561Z,68.49
2018-05-04T04:58:22.117Z,68.32
2018-05-04T05:00:56.679Z,68.87
2018-05-04T05:03:31.085Z,68.91
2018-05-04T05:06:05.639Z,69.11
2018-05-04T05:08:40.821Z,69.32
2018-05-04T05:11:15.490Z,69.42
2018-05-04T05:13:50.050Z,69.48
2018-05-04T05:16:25.254Z,69.67
2018-05-04T05:18:59.837Z,69.66
2018-05-04T05:21:34.466Z,69.68
2018-05-04T05:24:09.054Z,69.73
2018-05-04T05:26:43.461Z,69.49
2018-05-04T05:29:17.894Z,69.62
2018-05-04T05:31:53.124Z,69.62
2018-05-04T05:34:27.693Z,69.18
2018-05-04T05:37:02.153Z,68.70
2018-05-04T05:39:36.644Z,68.82
2018-05-04T05:42:11.941Z,68.73
2018-05-04T05:44:46.491Z,67.97
2018-05-04T05:47:21.091Z,68.04
2018-05-04T05:49:55.670Z,67.71
2018-05-04T05:52:31.015Z,67.29
2018-05-04T05:55:05.603Z,66.23
2018-05-04T05:57:40.161Z,66.70
2018-05-04T06:00:14.692Z,65.92
2018-05-04T06:02:49.114Z,65.07
2018-05-04T06:05:23.516Z,64.98
2018-05-04T06:07:59.032Z,64.19
2018-05-04T06:10:33.548Z,64.10
2018-05-04T06:13:08.873Z,62.67
2018-05-04T06:15:43.566Z,62.99
2018-05-04T06:18:18.321Z,62.33
2018-05-04T06:20:52.844Z,62.59
2018-05-04T06:23:27.415Z,61.14
2018-05-04T06:26:02.839Z,59.97
2018-05-04T06:28:37.238Z,60.66
2018-05-04T06:31:12.617Z,58.71
2018-05-04T06:33:47.106Z,59.35
2018-05-04T06:36:21.701Z,58.94
2018-05-04T06:38:56.355Z,58.07
2018-05-04T06:41:30.974Z,57.19
2018-05-04T06:44:05.398Z,57.16
2018-05-04T06:46:39.919Z,56.83
2018-05-04T06:49:14.604Z,56.78
2018-05-04T06:51:49.307Z,55.72
2018-05-04T06:54:23.849Z,54.53
2018-05-04T06:56:58.434Z,54.33
2018-05-04T06:59:33.103Z,54.91
2018-05-04T07:02:07.541Z,54.72
2018-05-04T07:04:42.012Z,53.51
2018-05-04T07:07:16.644Z,52.70
2018-05-04T07:09:51.130Z,52.89
2018-05-04T07:12:26.498Z,51.41
2018-05-04T07:15:01.254Z,49.82
2018-05-04T07:17:35.760Z,50.28
2018-05-04T07:20:10.306Z,48.94
2018-05-04T07:22:44.937Z,48.91
2018-05-04T07:25:19.532Z,48.82
2018-05-04T07:27:54.114Z,48.50
2018-05-04T07:30:28.723Z,47.91
2018-05-04T07:33:03.246Z,46.32
2018-05-04T07:35:37.661Z,45.10
2018-05-04T07:38:13.008Z,45.72
2018-05-04T07:40:47.457Z,44.43
2018-05-04T07:43:21.863Z,44.22
2018-05-04T07:45:56.570Z,42.34
2018-05-04T07:48:31.179Z,42.29
2018-05-04T07:51:06.488Z,41.83
2018-05-04T07:53:41.144Z,41.94
2018-05-04T07:56:16.535Z,41.04
2018-05-04T07:58:51.914Z,40.87
2018-05-04T08:01:26.405Z,40.71
2018-05-04T08:04:00.978Z,40.42
2018-05-04T08:06:35.604Z,39.74
2018-05-04T08:09:10.842Z,39.53
2018-05-04T08:11:45.406Z,38.83
2018-05-04T08:14:19.889Z,37.39
2018-05-04T08:16:54.507Z,36.56
2018-05-04T08:19:29.842Z,36.20
2018-05-04T08:22:04.422Z,36.20
2018-05-04T08:24:39.004Z,35.07
2018-05-04T08:27:13.521Z,33.99
2018-05-04T08:29:48.173Z,33.53
2018-05-04T08:32:22.711Z,32.57
2018-05-04T08:34:57.388Z,33.33
2018-05-04T08:37:32.044Z,34.24
2018-05-04T08:40:06.582Z,33.59
2018-05-04T08:42:41.031Z,32.72
2018-05-04T08:45:16.367Z,32.98
2018-05-04T08:47:51.577Z,31.61
2018-05-04T08:50:26.244Z,32.06
2018-05-04T08:53:00.936Z,32.12
2018-05-04T08:55:35.575Z,31.41
2018-05-04T08:58:10.145Z,30.29
2018-05-04T09:00:44.704Z,30.42
2018-05-04T09:03:19.896Z,30.07
2018-05-04T09:05:54.441Z,29.31
2018-05-04T09:08:29.112Z,28.35
2018-05-04T09:11:04.484Z,28.47
2018-05-04T09:13:39.065Z,27.93
2018-05-04T09:16:13.680Z,27.99
2018-05-04T09:18:48.313Z,26.89
2018-05-04T09:21:22.955Z,27.21
2018-05-04T09:23:57.577Z,26.47
2018-05-04T09:26:32.089Z,26.15
2018-05-04T09:29:06.576Z,26.52
2018-05-04T09:31:41.161Z,25.87
2018-05-04T09:34:16.567Z,24.17
2018-05-04T09:36:51.101Z,24.43
2018-05-04T09:39:25.741Z,24.93
2018-05-04T09:42:00.375Z,25.36
2018-05-04T09:44:34.901Z,25.21
2018-05-04T09:47:09.550Z,25.28
2018-05-04T09:49:44.095Z,24.41
2018-05-04T09:52:18.671Z,23.95
2018-05-04T09:54:53.319Z,23.63
2018-05-04T09:57:27.812Z,22.87
2018-05-04T10:00:02.419Z,21.86
2018-05-04T10:02:36.950Z,22.26
2018-05-04T10:05:11.543Z,23.12
2018-05-04T10:07:46.849Z,23.40
2018-05-04T10:10:21.536Z,22.68
2018-05-04T10:12:56.058Z,22.41
2018-05-04T10:15:30.628Z,22.78
2018-05-04T10:18:05.245Z,22.24
2018-05-04T10:20:39.885Z,22.03
2018-05-04T10:23:14.442Z,22.07
2018-05-04T10:25:48.966Z,22.01
2018-05-04T10:28:23.361Z,21.42
2018-05-04T10:30:58.019Z,21.33
2018-05-04T10:33:32.657Z,22.00
2018-05-04T10:36:07.239Z,21.86
2018-05-04T10:38:42.015Z,21.06
2018-05-04T10:41:16.287Z,20.63
2018-05-04T10:43:50.947Z,21.36
2018-05-04T10:46:25.521Z,21.68
2018-05-04T10:49:00.180Z,20.75
2018-05-04T10:51:34.802Z,20.80
2018-05-04T10:54:10.149Z,20.51
2018-05-04T10:56:44.740Z,20.58
2018-05-04T10:59:20.126Z,20.02
2018-05-04T11:01:54.737Z,19.77
2018-05-04T11:04:29.186Z,19.91
2018-05-04T11:07:03.826Z,19.62
2018-05-04T11:09:38.253Z,19.51
2018-05-04T11:12:12.813Z,19.82
2018-05-04T11:14:47.722Z,19.34
2018-05-04T11:17:22.284Z,18.84
2018-05-04T11:19:56.892Z,18.12
2018-05-04T11:22:32.227Z,19.44
2018-05-04T11:25:06.789Z,19.19
2018-05-04T11:27:41.424Z,18.78
2018-05-04T11:30:16.006Z,19.18
2018-05-04T11:32:50.651Z,18.88
2018-05-04T11:35:25.261Z,18.75
2018-05-04T11:37:59.875Z,18.58
2018-05-04T11:40:34.458Z,18.54
2018-05-04T11:43:09.082Z,18.18
2018-05-04T11:45:43.659Z,18.56
2018-05-04T11:48:19.082Z,18.03
2018-05-04T11:50:54.397Z,17.64
2018-05-04T11:53:29.020Z,16.86
2018-05-04T11:56:04.363Z,17.44
2018-05-04T11:58:38.935Z,17.36
2018-05-04T12:01:13.604Z,17.16
2018-05-04T12:03:48.130Z,18.14
2018-05-04T12:06:22.739Z,18.30
2018-05-04T12:08:57.213Z,18.06
2018-05-04T12:11:32.537Z,18.13
2018-05-04T12:14:07.151Z,18.22
2018-05-04T12:16:41.651Z,18.27
2018-05-04T12:19:16.168Z,18.26
2018-05-04T12:21:50.852Z,18.43
2018-05-04T12:24:26.065Z,17.53
2018-05-04T12:27:00.643Z,17.53
2018-05-04T12:29:35.268Z,17.70
2018-05-04T12:32:09.780Z,17.05
2018-05-04T12:34:44.354Z,17.34
2018-05-04T12:37:19.611Z,16.44
2018-05-04T12:39:54.189Z,16.98
2018-05-04T12:42:28.800Z,16.39
2018-05-04T12:45:03.501Z,16.83
2018-05-04T12:47:38.276Z,17.31
2018-05-04T12:50:13.682Z,17.60
2018-05-04T12:52:48.300Z,17.23
2018-05-04T12:55:22.786Z,17.41
2018-05-04T12:57:57.376Z,16.99
2018-05-04T13:00:31.941Z,16.65
2018-05-04T13:03:06.502Z,17.37
2018-05-04T13:05:41.013Z,18.05
2018-05-04T13:08:15.684Z,17.33
2018-05-04T13:10:50.262Z,17.84
2018-05-04T13:13:24.801Z,17.51
2018-05-04T13:15:59.312Z,17.09
2018-05-04T13:18:33.957Z,16.58
2018-05-04T13:21:08.582Z,17.27
2018-05-04T13:23:43.925Z,17.74
2018-05-04T13:26:18.704Z,17.73
2018-05-04T13:28:53.324Z,17.75
2018-05-04T13:31:28.670Z,17.45
2018-05-04T13:34:03.102Z,17.17
2018-05-04T13:36:37.666Z,16.46
2018-05-04T13:39:12.263Z,17.03
2018-05-04T13:41:46.828Z,17.60
2018-05-04T13:44:21.297Z,17.80
2018-05-04T13:46:55.727Z,17.91
2018-05-04T13:49:30.192Z,18.19
2018-05-04T13:52:04.716Z,17.62
2018-05-04T13:54:39.934Z,17.86
2018-05-04T13:57:14.605Z,18.37
2018-05-04T13:59:50.535Z,18.68
2018-05-04T14:02:25.058Z,18.10
2018-05-04T14:04:59.590Z,18.67
2018-05-04T14:07:34.152Z,18.07
2018-05-04T14:10:08.762Z,18.57
2018-05-04T14:12:43.416Z,18.16
2018-05-04T14:15:17.983Z,18.32
2018-05-04T14:17:52.710Z,18.63
2018-05-04T14:20:27.130Z,18.93
2018-05-04T14:23:01.653Z,18.97
2018-05-04T14:25:36.287Z,19.12
2018-05-04T14:28:10.773Z,19.11
2018-05-04T14:30:45.354Z,19.37
2018-05-04T14:33:19.975Z,19.88
2018-05-04T14:35:54.395Z,19.89
2018-05-04T14:38:29.020Z,20.27
2018-05-04T14:41:03.634Z,19.80
2018-05-04T14:43:38.211Z,19.72
2018-05-04T14:46:12.633Z,19.60
2018-05-04T14:48:47.226Z,19.86
2018-05-04T14:51:21.719Z,19.60
2018-05-04T14:53:56.126Z,19.62
2018-05-04T14:56:30.715Z,20.10
2018-05-04T14:59:05.255Z,20.04
2018-05-04T15:01:39.838Z,19.93
2018-05-04T15:04:14.421Z,20.20
2018-05-04T15:06:48.994Z,20.79
2018-05-04T15:09:23.480Z,20.85
2018-05-04T15:11:58.096Z,20.92
2018-05-04T15:14:32.684Z,20.83
2018-05-04T15:17:07.293Z,20.69
2018-05-04T15:19:41.685Z,20.65
2018-05-04T15:22:16.361Z,20.90
2018-05-04T15:24:51.702Z,21.20
2018-05-04T15:27:26.088Z,21.55
2018-05-04T15:30:00.685Z,21.29
2018-05-04T15:32:35.340Z,21.63
2018-05-04T15:35:09.901Z,21.88
2018-05-04T15:37:44.512Z,21.41
2018-05-04T15:40:19.140Z,22.01
2018-05-04T15:42:54.485Z,21.91
2018-05-04T15:45:29.117Z,21.67
2018-05-04T15:48:10.150Z,21.77
2018-05-04T15:53:49.809Z,21.96
2018-05-04T15:56:24.377Z,22.40
2018-05-04T15:58:58.994Z,22.55
2018-05-04T16:01:33.466Z,22.13
2018-05-04T16:04:08.085Z,22.75
2018-05-04T16:06:42.673Z,22.90
2018-05-04T16:09:17.235Z,22.96
2018-05-04T16:11:51.819Z,23.13
2018-05-04T16:14:26.408Z,22.96
2018-05-04T16:17:00.985Z,23.34
2018-05-04T16:19:35.616Z,23.68
2018-05-04T16:22:10.964Z,23.44
2018-05-04T16:24:45.574Z,23.74
2018-05-04T16:27:20.038Z,24.15
2018-05-04T16:29:54.595Z,24.45
2018-05-04T16:32:29.932Z,24.14
2018-05-04T16:35:04.524Z,24.93
2018-05-04T16:37:39.150Z,25.36
2018-05-04T16:40:13.716Z,25.17
2018-05-04T16:42:48.273Z,25.50
2018-05-04T16:45:22.905Z,26.02
2018-05-04T16:48:02.650Z,25.77
2018-05-04T16:50:37.290Z,26.17
2018-05-04T16:53:11.833Z,26.04
2018-05-04T16:55:46.470Z,26.34
2018-05-04T16:58:21.041Z,26.57
2018-05-04T17:00:55.676Z,26.98
2018-05-04T17:03:30.284Z,26.93
2018-05-04T17:06:04.841Z,27.06
2018-05-04T17:08:39.504Z,27.04
2018-05-04T17:11:14.057Z,27.10
2018-05-04T17:13:48.534Z,27.19
2018-05-04T17:16:23.145Z,27.31
2018-05-04T17:18:57.824Z,27.32
2018-05-04T17:21:32.363Z,27.62
2018-05-04T17:24:07.035Z,27.59
2018-05-04T17:26:42.356Z,28.36
2018-05-04T17:29:16.812Z,28.51
2018-05-04T17:31:51.467Z,28.36
2018-05-04T17:34:25.988Z,28.31
2018-05-04T17:37:00.385Z,28.49
2018-05-04T17:39:34.949Z,28.71
2018-05-04T17:42:10.124Z,29.09
2018-05-04T17:44:44.747Z,29.26
2018-05-04T17:47:20.054Z,29.29
2018-05-04T17:49:54.617Z,29.24
2018-05-04T17:52:29.245Z,29.32
2018-05-04T17:55:04.638Z,29.68
2018-05-04T17:57:39.162Z,30.00
2018-05-04T18:00:13.644Z,30.28
2018-05-04T18:02:48.268Z,30.67
2018-05-04T18:05:22.938Z,30.67
2018-05-04T18:07:57.520Z,30.90
2018-05-04T18:10:32.852Z,30.99
2018-05-04T18:13:07.413Z,31.61
2018-05-04T18:15:42.014Z,31.76
2018-05-04T18:18:16.427Z,31.86
2018-05-04T18:20:50.876Z,31.88
2018-05-04T18:23:25.429Z,32.19
2018-05-04T18:25:59.974Z,31.83
2018-05-04T18:28:34.652Z,32.20
2018-05-04T18:31:09.233Z,32.41
2018-05-04T18:33:43.832Z,32.39
2018-05-04T18:36:18.411Z,32.61
2018-05-04T18:38:53.047Z,32.55
2018-05-04T18:41:27.583Z,32.79
2018-05-04T18:44:02.200Z,33.27
2018-05-04T18:46:37.508Z,32.93
2018-05-04T18:49:12.104Z,33.01
2018-05-04T18:51:46.581Z,32.98
2018-05-04T18:54:21.329Z,33.59
2018-05-04T18:56:55.898Z,33.66
2018-05-04T18:59:31.248Z,33.77
2018-05-04T19:02:05.830Z,34.17
2018-05-04T19:04:40.451Z,34.42
2018-05-04T19:07:15.922Z,34.68
2018-05-04T19:09:50.646Z,34.90
2018-05-04T19:12:25.223Z,35.30
2018-05-04T19:14:59.849Z,35.43
2018-05-04T19:17:34.329Z,35.60
2018-05-04T19:20:08.926Z,35.62
2018-05-04T19:22:43.472Z,36.15
2018-05-04T19:25:18.654Z,36.35
2018-05-04T19:27:53.201Z,36.36
2018-05-04T19:30:27.685Z,36.30
2018-05-04T19:33:02.246Z,36.47
2018-05-04T19:35:36.785Z,36.26
2018-05-04T19:38:11.353Z,36.52
2018-05-04T19:40:46.586Z,36.73
2018-05-04T19:43:21.070Z,36.63
2018-05-04T19:45:56.424Z,36.59
2018-05-04T19:48:31.138Z,36.70
2018-05-04T19:51:06.379Z,36.88
2018-05-04T19:53:41.050Z,36.66
2018-05-04T19:56:15.553Z,36.68
2018-05-04T19:58:50.900Z,37.17
2018-05-04T20:01:25.469Z,37.20
2018-05-04T20:04:00.067Z,37.29
2018-05-04T20:06:34.526Z,37.39
2018-05-04T20:09:09.159Z,37.51
2018-05-04T20:11:43.635Z,37.50
2018-05-04T20:14:18.275Z,37.91
2018-05-04T20:16:52.837Z,38.07
2018-05-04T20:19:27.577Z,38.26
2018-05-04T20:22:02.070Z,38.11
2018-05-04T20:24:36.719Z,38.41
2018-05-04T20:27:11.219Z,38.49
2018-05-04T20:29:45.775Z,38.56
2018-05-04T20:32:20.998Z,38.43
2018-05-04T20:34:56.100Z,38.90
2018-05-04T20:37:30.677Z,38.89
2018-05-04T20:40:06.092Z,39.21
2018-05-04T20:42:40.628Z,39.50
2018-05-04T20:45:15.289Z,39.68
2018-05-04T20:47:49.810Z,39.67
2018-05-04T20:50:24.419Z,39.96
2018-05-04T20:52:59.029Z,40.19
2018-05-04T20:55:33.595Z,40.50
2018-05-04T20:58:08.840Z,40.62
2018-05-04T21:00:43.418Z,41.05
2018-05-04T21:03:18.028Z,41.37
2018-05-04T21:05:53.378Z,41.74
2018-05-04T21:08:27.902Z,41.93
2018-05-04T21:11:02.615Z,42.38
2018-05-04T21:13:37.329Z,42.08
2018-05-04T21:16:11.759Z,42.43
2018-05-04T21:18:46.361Z,42.49
2018-05-04T21:21:21.026Z,42.82
2018-05-04T21:23:55.774Z,43.07
2018-05-04T21:26:30.451Z,43.46
2018-05-04T21:29:05.193Z,43.79
2018-05-04T21:31:39.813Z,43.77
2018-05-04T21:34:15.034Z,44.09
2018-05-04T21:36:55.882Z,44.14
2018-05-04T21:39:30.397Z,44.38
2018-05-04T21:42:04.989Z,44.55
2018-05-04T21:44:39.580Z,44.54
2018-05-04T21:47:14.178Z,44.80
2018-05-04T21:49:48.765Z,45.18
2018-05-04T21:52:23.381Z,45.02
2018-05-04T21:54:58.038Z,45.23
2018-05-04T21:57:32.578Z,45.17
2018-05-04T22:00:07.074Z,45.54
2018-05-04T22:02:41.682Z,45.55
2018-05-04T22:05:16.270Z,45.76
2018-05-04T22:07:50.905Z,45.96
2018-05-04T22:10:25.574Z,45.94
2018-05-04T22:13:00.796Z,46.02
2018-05-04T22:15:36.226Z,46.22
2018-05-04T22:18:10.622Z,46.21
2018-05-04T22:20:45.186Z,46.41
2018-05-04T22:23:19.773Z,46.58
2018-05-04T22:25:54.393Z,46.72
2018-05-04T22:28:29.095Z,46.78
2018-05-04T22:31:03.654Z,46.94
2018-05-04T22:33:38.152Z,47.21
2018-05-04T22:36:12.557Z,46.97
2018-05-04T22:38:47.092Z,47.24
2018-05-04T22:41:21.706Z,47.27
2018-05-04T22:43:56.127Z,47.37
2018-05-04T22:46:30.722Z,47.61
2018-05-04T22:49:05.962Z,47.74
2018-05-04T22:51:40.500Z,48.00
2018-05-04T22:54:15.192Z,47.66
2018-05-04T22:56:49.909Z,47.81
2018-05-04T22:59:24.373Z,47.78
2018-05-04T23:01:59.749Z,47.82
2018-05-04T23:04:34.280Z,48.08
2018-05-04T23:07:09.590Z,47.94
2018-05-04T23:09:44.854Z,48.15
2018-05-04T23:12:19.476Z,48.11
2018-05-04T23:14:53.924Z,47.85
2018-05-04T23:17:28.515Z,47.79
2018-05-04T23:20:03.136Z,48.06
2018-05-04T23:22:37.808Z,48.30
2018-05-04T23:25:13.078Z,48.29
2018-05-04T23:27:47.780Z,48.23
2018-05-04T23:30:22.278Z,48.27
2018-05-04T23:32:57.633Z,48.20
2018-05-04T23:35:32.195Z,48.26
2018-05-04T23:38:07.446Z,48.76
2018-05-04T23:40:42.006Z,48.73
2018-05-04T23:43:16.619Z,48.88
2018-05-04T23:45:51.277Z,48.80
2018-05-04T23:48:25.759Z,49.35
2018-05-04T23:51:00.202Z,49.33
2018-05-04T23:53:34.849Z,49.42
2018-05-04T23:56:11.550Z,49.21
2018-05-04T23:58:46.112Z,49.10
